• Join FlightAware (Why Join?)
  • Login
  • US Flag 
11:44AM EDT


 

Airport Tracker/Info


-or-


 

Live Flight TrackerFlight Track Log ✈ SWA561 ✈ 19-Apr-2013 ✈ KOAK - KLAX

Flight Track Log - Related Links

Times and Time Zones

All times are in EDT time to prevent confusion due to time zone crossing. See the SWA561 flight status page for this flight to view local times or setup timezone preferences in your user account.

Time Position Orientation Groundspeed Altitude Reporting Facility
EDT Latitude Longitude Course Direction KTS MPH feet Rate Location/Type
08:32PM 37.7194 -122.2425 140° Southeast 149 171 1,000  Level Oakland Center
08:33PM 37.7422 -122.2997 297° West 194 223 3,000 1,980 Climbing Oakland Center
08:34PM 37.7250 -122.3622 251° West 217 250 5,100 2,820 Climbing Oakland Center
08:35PM 37.6458 -122.3828 192° South 264 304 8,900 3,000 Climbing Oakland Center
08:37PM 37.5403 -122.4122 192° South 312 359 11,300 2,940 Climbing Oakland Center
08:38PM 37.2746 -121.7438 140° Southeast  Level Estimated
08:38PM 37.4403 -122.3883 169° South 374 430 14,900  Level Oakland Center
08:39PM 37.3564 -122.2972 139° Southeast 398 458 18,200 2,940 Climbing Oakland Center
08:40PM 37.2792 -122.1864 131° Southeast 416 479 21,000 2,580 Climbing Oakland Center
08:41PM 37.1978 -122.0750 133° Southeast 430 495 23,600 2,820 Climbing Oakland Center
08:42PM 37.1150 -121.9594 132° Southeast 443 510 26,800 2,640 Climbing Oakland Center
08:43PM 37.0333 -121.8444 132° Southeast 444 511 29,000 1,020 Climbing Oakland Center
08:44PM 36.9511 -121.7317 132° Southeast 441 507 29,000  Level Oakland Center
08:45PM 36.8700 -121.6183 132° Southeast 437 503 29,000  Level Oakland Center
08:46PM 36.7797 -121.4972 133° Southeast 435 501 29,000  Level Oakland Center
08:47PM 36.6992 -121.3842 132° Southeast 435 501 29,000  Level Oakland Center
08:48PM 36.6178 -121.2742 133° Southeast 433 498 29,000  Level Oakland Center
08:49PM 36.5356 -121.1639 133° Southeast 435 501 29,000  Level Oakland Center
08:50PM 36.4381 -121.0317 132° Southeast 433 498 29,000  Level Oakland Center
08:51PM 36.3564 -120.9211 133° Southeast 433 498 29,000  Level Oakland Center
08:52PM 36.2742 -120.8094 132° Southeast 436 502 29,000  Level Oakland Center
08:53PM 36.1919 -120.7000 133° Southeast 434 499 29,000  Level Oakland Center
08:54PM 36.1094 -120.5889 133° Southeast 435 501 29,000  Level Oakland Center
08:55PM 36.0264 -120.4767 132° Southeast 446 513 29,000  Level Oakland Center
08:56PM 35.9439 -120.3686 133° Southeast 433 498 29,000  Level Oakland Center
08:57PM 35.8606 -120.2592 133° Southeast 434 499 29,000  Level Oakland Center
08:58PM 35.7772 -120.1503 133° Southeast 434 499 29,000  Level Oakland Center
08:59PM 35.6944 -120.0411 133° Southeast 433 498 29,000  Level Oakland Center
09:00PM 35.6053 -119.9403 137° Southeast 429 494 29,000  Level Oakland Center
09:01PM 35.5047 -119.8564 146° Southeast 431 496 29,000  Level Oakland Center
09:02PM 35.3861 -119.7533 145° Southeast 431 496 29,000  Level Oakland Center
09:03PM 35.3278 -119.7036 145° Southeast 429 494 29,000  Level Los Angeles Center
09:04PM 35.2308 -119.6192 145° Southeast 427 491 29,000  Level Los Angeles Center
09:05PM 35.1331 -119.5361 145° Southeast 427 491 29,000  Level Los Angeles Center
09:06PM 35.0350 -119.4528 145° Southeast 428 493 29,000  Level Los Angeles Center
09:07PM 34.9375 -119.3697 145° Southeast 427 491 29,000 -900 Level Los Angeles Center
09:08PM 34.8231 -119.2736 145° Southeast 417 480 27,200 -2,100 Descending Los Angeles Center
09:09PM 34.7275 -119.1919 145° Southeast 418 481 24,700 -2,460 Descending Los Angeles Center
09:10PM 34.6219 -119.1025 145° Southeast 430 495 22,100 -2,340 Descending Los Angeles Center
09:11PM 34.5233 -119.0211 146° Southeast 406 467 19,900 -2,100 Descending Los Angeles Center
09:12PM 34.4319 -118.9464 146° Southeast 393 452 17,800 -2,040 Descending Los Angeles Center
09:13PM 34.3414 -118.8764 147° Southeast 383 441 15,700 -2,040 Descending Los Angeles Center
09:14PM 34.2411 -118.8386 163° South 377 434 13,600 -2,100 Descending Los Angeles Center
09:15PM 34.1428 -118.8028 163° South 369 425 11,400 -1,680 Descending Los Angeles Center
09:16PM 34.0467 -118.7514 156° South 346 398 10,200 -780 Descending Los Angeles Center
09:17PM 34.0283 -118.6464 102° East 299 344 9,900 -780 Descending Los Angeles Center
09:18PM 34.0186 -118.5483 97° East 295 339 8,600 -1,260 Descending Los Angeles Center
09:19PM 34.0106 -118.4553 96° East 281 323 7,400 -1,380 Descending Los Angeles Center
09:20PM 34.0172 -118.3681 85° East 266 306 5,800 -1,560 Descending Los Angeles Center
09:21PM 34.0250 -118.2767 84° East 270 311 4,200 -1,260 Descending Los Angeles Center
09:22PM 34.0081 -118.1994 105° East 266 306 3,300 -840 Descending Los Angeles Center
09:23PM 33.9683 -118.2283 211° Southwest 228 262 2,500 -720 Descending Los Angeles Center
09:24PM 33.9628 -118.2992 265° West 193 222 1,900 -720 Descending Los Angeles Center
09:25PM 33.9583 -118.3436 263° West 159 183 1,100 -720 Descending Los Angeles Center
09:27PM 33.9553 -118.3836 265° West 133 153 500 -480 Descending Los Angeles Center
09:28PM 33.9494 -118.4214 259° West 129 148 200 -300 Descending Los Angeles Center